createdAt,value
2023-03-06T00:02:02.982Z,96419.94
2023-03-06T00:04:29.484Z,96414.75
2023-03-06T00:06:55.941Z,96406.16
2023-03-06T00:09:22.489Z,96406.25
2023-03-06T00:11:48.995Z,96408.84
2023-03-06T00:14:16.539Z,96407.22
2023-03-06T00:16:43.018Z,96405.59
2023-03-06T00:19:09.575Z,96397.88
2023-03-06T00:21:36.099Z,96395.28
2023-03-06T00:24:02.626Z,96391.00
2023-03-06T00:26:29.122Z,96385.88
2023-03-06T00:28:55.638Z,96385.97
2023-03-06T00:31:22.210Z,96377.47
2023-03-06T00:33:49.500Z,96379.41
2023-03-06T00:36:16.099Z,96379.50
2023-03-06T00:38:42.652Z,96377.72
2023-03-06T00:41:13.212Z,96375.91
2023-03-06T00:43:39.767Z,96363.03
2023-03-06T00:46:06.484Z,96369.22
2023-03-06T00:48:33.911Z,96368.41
2023-03-06T00:51:01.220Z,96365.81
2023-03-06T00:53:27.826Z,96364.13
2023-03-06T00:55:54.323Z,96363.34
2023-03-06T00:58:20.813Z,96359.91
2023-03-06T01:00:47.382Z,96355.75
2023-03-06T01:03:13.988Z,96352.41
2023-03-06T01:05:40.795Z,96352.53
2023-03-06T01:08:08.827Z,96344.06
2023-03-06T01:10:39.659Z,96337.19
2023-03-06T01:13:06.537Z,96337.53
2023-03-06T01:15:33.224Z,96329.94
2023-03-06T01:17:59.783Z,96325.72
2023-03-06T01:20:26.480Z,96327.41
2023-03-06T01:22:54.575Z,96318.88
2023-03-06T01:25:21.467Z,96318.91
2023-03-06T01:27:48.060Z,96310.31
2023-03-06T01:30:14.619Z,96307.00
2023-03-06T01:32:41.302Z,96307.97
2023-03-06T01:35:08.621Z,96300.97
2023-03-06T01:37:36.344Z,96294.97
2023-03-06T01:40:04.536Z,96302.75
2023-03-06T01:42:32.250Z,96298.53
2023-03-06T01:45:04.216Z,96292.56
2023-03-06T01:47:30.975Z,96293.59
2023-03-06T01:50:00.641Z,96291.16
2023-03-06T01:52:31.340Z,96297.16
2023-03-06T01:55:03.120Z,96278.25
2023-03-06T01:57:57.991Z,96275.66
2023-03-06T02:00:27.760Z,96269.69
2023-03-06T02:03:05.380Z,96253.44
2023-03-06T02:05:32.391Z,96262.19
2023-03-06T02:07:59.068Z,96254.47
2023-03-06T02:10:25.712Z,96249.28
2023-03-06T02:12:53.086Z,96256.16
2023-03-06T02:15:23.348Z,96239.75
2023-03-06T02:17:51.405Z,96234.72
2023-03-06T02:20:39.895Z,96230.59
2023-03-06T02:23:14.327Z,96225.41
2023-03-06T02:25:47.519Z,96226.31
2023-03-06T02:28:19.932Z,96221.13
2023-03-06T02:30:49.307Z,96222.88
2023-03-06T02:33:18.638Z,96222.03
2023-03-06T02:35:54.371Z,96223.78
2023-03-06T02:38:26.070Z,96216.78
2023-03-06T02:40:53.030Z,96206.47
2023-03-06T02:43:28.062Z,96211.72
2023-03-06T02:45:54.663Z,96204.03
2023-03-06T02:48:21.650Z,96193.75
2023-03-06T02:50:48.728Z,96198.13
2023-03-06T02:53:17.490Z,96194.78
2023-03-06T02:55:44.036Z,96193.88
2023-03-06T02:58:10.571Z,96193.03
2023-03-06T03:00:37.115Z,96185.25
2023-03-06T03:03:05.081Z,96189.69
2023-03-06T03:05:31.716Z,96177.75
2023-03-06T03:07:58.530Z,96181.31
2023-03-06T03:10:25.326Z,96176.97
2023-03-06T03:12:51.827Z,96166.69
2023-03-06T03:15:18.809Z,96173.53
2023-03-06T03:17:45.339Z,96176.09
2023-03-06T03:20:15.296Z,96176.13
2023-03-06T03:22:42.012Z,96159.91
2023-03-06T03:25:09.108Z,96163.47
2023-03-06T03:27:35.660Z,96163.47
2023-03-06T03:30:02.175Z,96166.88
2023-03-06T03:32:28.710Z,96154.81
2023-03-06T03:34:56.358Z,96151.47
2023-03-06T03:37:23.193Z,96158.41
2023-03-06T03:39:49.798Z,96148.25
2023-03-06T03:42:16.327Z,96147.47
2023-03-06T03:44:42.841Z,96143.34
2023-03-06T03:47:09.323Z,96142.66
2023-03-06T03:49:35.821Z,96133.31
2023-03-06T03:52:02.294Z,96129.97
2023-03-06T03:54:29.604Z,96136.88
2023-03-06T03:56:56.157Z,96133.53
2023-03-06T03:59:22.789Z,96132.81
2023-03-06T04:01:49.648Z,96133.06
2023-03-06T04:04:16.564Z,96130.53
2023-03-06T04:06:43.087Z,96128.75
2023-03-06T04:09:10.768Z,96121.94
2023-03-06T04:11:37.520Z,96121.94
2023-03-06T04:14:04.181Z,96129.00
2023-03-06T04:16:30.784Z,96130.03
2023-03-06T04:18:57.391Z,96118.06
2023-03-06T04:21:23.840Z,96115.56
2023-03-06T04:23:50.358Z,96113.03
2023-03-06T04:26:16.834Z,96118.28
2023-03-06T04:28:43.350Z,96112.25
2023-03-06T04:31:12.198Z,96109.81
2023-03-06T04:33:39.363Z,96111.59
2023-03-06T04:36:06.052Z,96108.13
2023-03-06T04:38:32.615Z,96111.59
2023-03-06T04:40:59.211Z,96110.69
2023-03-06T04:43:25.796Z,96104.69
2023-03-06T04:45:52.387Z,96102.16
2023-03-06T04:48:19.140Z,96090.16
2023-03-06T04:50:46.165Z,96094.53
2023-03-06T04:53:14.500Z,96095.50
2023-03-06T04:55:41.035Z,96097.25
2023-03-06T04:58:07.544Z,96092.84
2023-03-06T05:00:34.199Z,96085.94
2023-03-06T05:03:01.637Z,96085.06
2023-03-06T05:05:28.406Z,96080.03
2023-03-06T05:07:55.142Z,96074.94
2023-03-06T05:10:21.894Z,96081.81
2023-03-06T05:12:48.461Z,96075.78
2023-03-06T05:15:16.719Z,96076.63
2023-03-06T05:17:43.691Z,96073.91
2023-03-06T05:20:11.985Z,96080.53
2023-03-06T05:22:38.732Z,96079.56
2023-03-06T05:25:06.154Z,96086.28
2023-03-06T05:27:33.405Z,96072.38
2023-03-06T05:30:00.266Z,96083.53
2023-03-06T05:32:26.855Z,96083.44
2023-03-06T05:34:53.427Z,96086.94
2023-03-06T05:37:20.009Z,96081.00
2023-03-06T05:39:46.855Z,96082.81
2023-03-06T05:42:13.394Z,96083.06
2023-03-06T05:44:41.598Z,96083.91
2023-03-06T05:47:09.081Z,96080.38
2023-03-06T05:49:36.802Z,96074.97
2023-03-06T05:52:04.707Z,96080.16
2023-03-06T05:54:33.493Z,96081.91
2023-03-06T05:57:00.182Z,96078.41
2023-03-06T05:59:28.586Z,96078.41
2023-03-06T06:01:56.032Z,96076.50
2023-03-06T06:04:23.955Z,96084.25
2023-03-06T06:06:55.949Z,96084.91
2023-03-06T06:09:23.423Z,96082.91
2023-03-06T06:11:54.376Z,96076.63
2023-03-06T06:14:21.571Z,96083.41
2023-03-06T06:16:48.828Z,96080.81
2023-03-06T06:19:18.775Z,96078.91
2023-03-06T06:21:50.829Z,96073.69
2023-03-06T06:24:19.683Z,96069.00
2023-03-06T06:26:46.555Z,96079.22
2023-03-06T06:29:13.593Z,96070.38
2023-03-06T06:31:40.678Z,96067.59
2023-03-06T06:34:08.540Z,96078.69
2023-03-06T06:36:35.040Z,96075.78
2023-03-06T06:39:01.611Z,96075.50
2023-03-06T06:41:54.895Z,96080.25
2023-03-06T06:44:16.197Z,96076.75
2023-03-06T06:49:32.190Z,96075.38
2023-03-06T06:51:58.880Z,96074.47
2023-03-06T06:54:25.879Z,96077.72
2023-03-06T06:56:52.862Z,96076.84
2023-03-06T06:59:19.751Z,96084.31
2023-03-06T07:01:46.331Z,96081.38
2023-03-06T07:04:13.752Z,96077.47
2023-03-06T07:06:41.240Z,96086.56
2023-03-06T07:09:07.741Z,96087.41
2023-03-06T07:11:34.534Z,96094.81
2023-03-06T07:14:01.848Z,96090.91
2023-03-06T07:16:28.381Z,96088.69
2023-03-06T07:18:55.004Z,96097.94
2023-03-06T07:21:21.759Z,96092.44
2023-03-06T07:23:48.322Z,96096.88
2023-03-06T07:26:14.800Z,96099.09
2023-03-06T07:28:52.039Z,96092.59
2023-03-06T07:31:25.143Z,96092.84
2023-03-06T07:33:54.056Z,96100.09
2023-03-06T07:36:22.293Z,96100.84
2023-03-06T07:38:48.860Z,96100.44
2023-03-06T07:41:16.556Z,96097.75
2023-03-06T07:43:44.841Z,96100.84
2023-03-06T07:46:13.150Z,96100.44
2023-03-06T07:48:40.300Z,96096.59
2023-03-06T07:51:18.655Z,96097.00
2023-03-06T07:53:46.027Z,96102.38
2023-03-06T07:56:13.301Z,96102.69
2023-03-06T07:58:42.464Z,96093.28
2023-03-06T08:01:12.727Z,96095.03
2023-03-06T08:03:39.295Z,96102.88
2023-03-06T08:06:17.417Z,96106.25
2023-03-06T08:08:46.017Z,96091.69
2023-03-06T08:11:14.842Z,96092.91
2023-03-06T08:13:41.727Z,96091.34
2023-03-06T08:16:09.187Z,96094.44
2023-03-06T08:18:36.128Z,96097.25
2023-03-06T08:21:09.188Z,96095.84
2023-03-06T08:23:36.203Z,96096.94
2023-03-06T08:26:07.086Z,96093.28
2023-03-06T08:28:34.185Z,96105.91
2023-03-06T08:31:25.767Z,96098.44
2023-03-06T08:33:53.251Z,96106.75
2023-03-06T08:36:19.751Z,96106.34
2023-03-06T08:38:46.439Z,96111.81
2023-03-06T08:41:13.678Z,96110.19
2023-03-06T08:43:40.345Z,96109.00
2023-03-06T08:46:06.975Z,96103.09
2023-03-06T08:48:33.568Z,96112.34
2023-03-06T08:51:00.122Z,96110.59
2023-03-06T08:53:40.660Z,96102.53
2023-03-06T08:56:16.206Z,96112.53
2023-03-06T08:58:42.676Z,96111.72
2023-03-06T09:01:21.453Z,96108.22
2023-03-06T09:03:48.582Z,96114.03
2023-03-06T09:06:15.967Z,96114.69
2023-03-06T09:08:44.362Z,96109.25
2023-03-06T09:11:13.092Z,96116.00
2023-03-06T09:13:39.852Z,96108.19
2023-03-06T09:16:07.273Z,96112.53
2023-03-06T09:18:33.766Z,96104.31
2023-03-06T09:21:00.299Z,96110.66
2023-03-06T09:23:26.842Z,96109.78
2023-03-06T09:25:58.673Z,96108.84
2023-03-06T09:28:25.785Z,96114.28
2023-03-06T09:30:53.929Z,96120.13
2023-03-06T09:33:20.785Z,96117.28
2023-03-06T09:35:53.088Z,96113.44
2023-03-06T09:38:20.856Z,96114.78
2023-03-06T09:41:02.614Z,96115.69
2023-03-06T09:43:39.839Z,96103.84
2023-03-06T09:46:18.242Z,96114.53
2023-03-06T09:49:35.554Z,96117.13
2023-03-06T09:52:19.379Z,96120.81
2023-03-06T09:55:09.114Z,96116.13
2023-03-06T09:57:38.201Z,96114.38
2023-03-06T10:00:16.614Z,96113.81
2023-03-06T10:02:53.491Z,96119.59
2023-03-06T10:05:27.274Z,96109.84
2023-03-06T10:08:03.405Z,96111.31
2023-03-06T10:10:57.522Z,96103.78
2023-03-06T10:13:36.649Z,96098.19
2023-03-06T10:16:33.224Z,96089.31
2023-03-06T10:19:03.172Z,96089.19
2023-03-06T10:22:20.333Z,96100.66
2023-03-06T10:24:54.026Z,96101.19
2023-03-06T10:27:38.558Z,96097.78
2023-03-06T10:30:27.948Z,96097.53
2023-03-06T10:33:06.139Z,96101.72
2023-03-06T10:35:45.680Z,96097.63
2023-03-06T10:38:30.742Z,96101.41
2023-03-06T10:41:07.302Z,96090.41
2023-03-06T10:43:36.502Z,96095.31
2023-03-06T10:46:05.042Z,96099.13
2023-03-06T10:48:35.951Z,96088.25
2023-03-06T10:51:21.719Z,96082.63
2023-03-06T10:54:02.898Z,96085.78
2023-03-06T10:56:31.079Z,96071.44
2023-03-06T10:59:17.765Z,96077.88
2023-03-06T11:01:49.827Z,96068.31
2023-03-06T11:04:28.845Z,96058.06
2023-03-06T11:07:16.165Z,96061.13
2023-03-06T11:10:00.986Z,96065.25
2023-03-06T11:12:35.367Z,96063.47
2023-03-06T11:15:14.244Z,96059.28
2023-03-06T11:18:09.901Z,96063.31
2023-03-06T11:20:52.431Z,96060.22
2023-03-06T11:23:29.314Z,96061.19
2023-03-06T11:26:01.195Z,96054.56
2023-03-06T11:28:35.043Z,96052.66
2023-03-06T11:31:11.935Z,96058.00
2023-03-06T11:33:46.445Z,96055.38
2023-03-06T11:36:23.134Z,96056.97
2023-03-06T11:38:54.307Z,96045.19
2023-03-06T11:41:32.894Z,96053.97
2023-03-06T11:44:15.343Z,96048.34
2023-03-06T11:46:48.686Z,96042.56
2023-03-06T11:49:28.982Z,96042.81
2023-03-06T11:51:59.325Z,96036.97
2023-03-06T11:54:26.583Z,96040.03
2023-03-06T11:57:06.633Z,96027.84
2023-03-06T11:59:44.909Z,96016.28
2023-03-06T12:02:39.641Z,96021.88
2023-03-06T12:05:24.568Z,96022.13
2023-03-06T12:08:03.182Z,96015.59
2023-03-06T12:10:41.221Z,96014.88
2023-03-06T12:13:35.332Z,96021.13
2023-03-06T12:16:31.693Z,96009.66
2023-03-06T12:19:17.209Z,96020.47
2023-03-06T12:21:47.237Z,96015.72
2023-03-06T12:24:32.435Z,96020.59
2023-03-06T12:27:13.155Z,96011.00
2023-03-06T12:30:04.166Z,96008.03
2023-03-06T12:32:38.051Z,96006.81
2023-03-06T12:35:16.698Z,96002.25
2023-03-06T12:38:14.723Z,96005.38
2023-03-06T12:41:16.832Z,96005.03
2023-03-06T12:44:05.504Z,95999.06
2023-03-06T12:46:38.863Z,95995.44
2023-03-06T12:49:09.770Z,95999.78
2023-03-06T12:51:39.851Z,95993.94
2023-03-06T12:54:07.169Z,95992.97
2023-03-06T12:56:34.704Z,95996.91
2023-03-06T12:59:04.896Z,96003.81
2023-03-06T13:01:37.172Z,96001.66
2023-03-06T13:04:48.067Z,96001.84
2023-03-06T13:07:27.922Z,95997.63
2023-03-06T13:10:09.759Z,96003.97
2023-03-06T13:12:47.389Z,96003.78
2023-03-06T13:15:37.185Z,96008.63
2023-03-06T13:18:22.089Z,96006.78
2023-03-06T13:20:49.336Z,96011.78
2023-03-06T13:23:37.388Z,96010.63
2023-03-06T13:26:24.975Z,96012.94
2023-03-06T13:28:57.807Z,96007.53
2023-03-06T13:31:33.186Z,96011.09
2023-03-06T13:34:00.847Z,96007.34
2023-03-06T13:36:38.289Z,96008.19
2023-03-06T13:39:10.220Z,96005.47
2023-03-06T13:41:44.261Z,96002.34
2023-03-06T13:44:40.323Z,95996.47
2023-03-06T13:47:25.843Z,96004.53
2023-03-06T13:49:52.401Z,96003.50
2023-03-06T13:52:25.182Z,95998.38
2023-03-06T13:55:12.994Z,96000.25
2023-03-06T13:58:21.191Z,95999.13
2023-03-06T14:01:11.948Z,95998.25
2023-03-06T14:04:25.121Z,95999.84
2023-03-06T14:07:06.637Z,96000.75
2023-03-06T14:09:48.591Z,95999.19
2023-03-06T14:12:24.433Z,95995.25
2023-03-06T14:14:56.797Z,95993.13
2023-03-06T14:17:40.425Z,95996.28
2023-03-06T14:20:19.746Z,95997.84
2023-03-06T14:22:46.364Z,95997.97
2023-03-06T14:25:12.895Z,95995.88
2023-03-06T14:28:05.681Z,95996.28
2023-03-06T14:30:49.639Z,95995.25
2023-03-06T14:33:44.577Z,95989.47
2023-03-06T14:36:15.658Z,95996.19
2023-03-06T14:38:50.219Z,95999.44
2023-03-06T14:41:28.783Z,95993.34
2023-03-06T14:44:30.606Z,95990.81
2023-03-06T14:47:26.937Z,95990.19
2023-03-06T14:50:23.257Z,95997.28
2023-03-06T14:52:55.262Z,95999.69
2023-03-06T14:55:24.574Z,96004.91
2023-03-06T14:58:01.643Z,96000.53
2023-03-06T15:00:35.827Z,95998.63
2023-03-06T15:03:07.580Z,96005.22
2023-03-06T15:05:34.732Z,96003.75
2023-03-06T15:08:04.571Z,96004.56
2023-03-06T15:10:34.184Z,95999.25
2023-03-06T15:13:20.008Z,96001.97
2023-03-06T15:16:01.185Z,95994.13
2023-03-06T15:18:29.674Z,95999.66
2023-03-06T15:21:07.867Z,95991.69
2023-03-06T15:23:36.056Z,96000.44
2023-03-06T15:26:22.271Z,95998.16
2023-03-06T15:29:08.319Z,95999.09
2023-03-06T15:31:38.264Z,95994.63
2023-03-06T15:34:07.829Z,96002.84
2023-03-06T15:36:37.488Z,95996.44
2023-03-06T15:39:30.192Z,95995.06
2023-03-06T15:42:05.016Z,95994.31
2023-03-06T15:44:32.846Z,95997.22
2023-03-06T15:47:08.500Z,95998.06
2023-03-06T15:49:38.231Z,95989.63
2023-03-06T15:52:06.494Z,95989.63
2023-03-06T15:54:33.369Z,95998.47
2023-03-06T15:57:00.444Z,95989.13
2023-03-06T15:59:33.086Z,95998.94
2023-03-06T16:02:11.036Z,95995.41
2023-03-06T16:04:37.646Z,95999.34
2023-03-06T16:07:04.180Z,95993.47
2023-03-06T16:09:30.697Z,95993.66
2023-03-06T16:11:57.294Z,95996.38
2023-03-06T16:14:24.033Z,95997.09
2023-03-06T16:16:52.355Z,95997.50
2023-03-06T16:19:28.699Z,95997.69
2023-03-06T16:21:56.484Z,95996.97
2023-03-06T16:24:23.375Z,95997.13
2023-03-06T16:26:51.519Z,95998.09
2023-03-06T16:29:20.710Z,95996.50
2023-03-06T16:31:47.613Z,95997.63
2023-03-06T16:34:15.301Z,95994.16
2023-03-06T16:36:41.965Z,95997.81
2023-03-06T16:39:20.088Z,96004.69
2023-03-06T16:41:47.170Z,96002.28
2023-03-06T16:44:13.759Z,96001.63
2023-03-06T16:46:45.251Z,96004.50
2023-03-06T16:49:18.665Z,96000.41
2023-03-06T16:51:45.422Z,96002.47
2023-03-06T16:54:13.167Z,96015.69
2023-03-06T16:56:39.822Z,96008.91
2023-03-06T16:59:06.603Z,96007.31
2023-03-06T17:01:33.233Z,96015.34
2023-03-06T17:03:59.942Z,96012.88
2023-03-06T17:06:26.514Z,96019.97
2023-03-06T17:08:53.032Z,96028.72
2023-03-06T17:11:20.453Z,96024.53
2023-03-06T17:13:47.905Z,96025.38
2023-03-06T17:16:18.456Z,96026.22
2023-03-06T17:18:45.999Z,96030.03
2023-03-06T17:21:15.739Z,96034.66
2023-03-06T17:23:42.702Z,96037.09
2023-03-06T17:26:15.393Z,96038.19
2023-03-06T17:28:42.643Z,96034.00
2023-03-06T17:31:18.098Z,96040.22
2023-03-06T17:33:44.900Z,96037.72
2023-03-06T17:36:12.620Z,96043.84
2023-03-06T17:38:39.131Z,96048.34
2023-03-06T17:41:07.759Z,96051.84
2023-03-06T17:43:34.297Z,96049.25
2023-03-06T17:46:09.390Z,96052.50
2023-03-06T17:48:36.851Z,96062.38
2023-03-06T17:51:04.103Z,96053.88
2023-03-06T17:53:30.684Z,96057.22
2023-03-06T17:55:58.206Z,96052.31
2023-03-06T17:58:25.671Z,96053.31
2023-03-06T18:00:52.546Z,96053.41
2023-03-06T18:03:19.182Z,96053.50
2023-03-06T18:05:45.747Z,96053.50
2023-03-06T18:08:12.411Z,96060.13
2023-03-06T18:10:43.464Z,96052.50
2023-03-06T18:13:10.256Z,96050.81
2023-03-06T18:15:40.776Z,96052.66
2023-03-06T18:18:08.170Z,96051.63
2023-03-06T18:20:39.959Z,96057.59
2023-03-06T18:23:06.487Z,96066.59
2023-03-06T18:25:33.172Z,96069.38
2023-03-06T18:27:59.728Z,96074.88
2023-03-06T18:30:26.399Z,96079.56
2023-03-06T18:32:53.676Z,96084.22
2023-03-06T18:35:20.650Z,96086.16
2023-03-06T18:37:47.174Z,96090.69
2023-03-06T18:40:14.213Z,96089.94
2023-03-06T18:42:40.784Z,96089.19
2023-03-06T18:45:07.945Z,96086.56
2023-03-06T18:47:34.517Z,96091.00
2023-03-06T18:50:02.717Z,96092.97
2023-03-06T18:52:29.246Z,96094.81
2023-03-06T18:54:55.766Z,96090.53
2023-03-06T18:57:22.310Z,96094.97
2023-03-06T18:59:49.060Z,96093.38
2023-03-06T19:02:15.627Z,96095.13
2023-03-06T19:04:42.183Z,96090.94
2023-03-06T19:07:08.712Z,96104.03
2023-03-06T19:09:35.248Z,96105.91
2023-03-06T19:12:03.487Z,96111.19
2023-03-06T19:14:30.337Z,96095.66
2023-03-06T19:16:57.032Z,96095.75
2023-03-06T19:19:26.326Z,96095.91
2023-03-06T19:21:53.676Z,96094.50
2023-03-06T19:24:20.228Z,96095.75
2023-03-06T19:26:46.886Z,96097.66
2023-03-06T19:29:13.384Z,96098.75
2023-03-06T19:31:40.022Z,96094.66
2023-03-06T19:34:06.532Z,96100.94
2023-03-06T19:36:34.283Z,96095.81
2023-03-06T19:39:03.638Z,96096.84
2023-03-06T19:41:30.589Z,96100.13
2023-03-06T19:43:59.554Z,96087.16
2023-03-06T19:46:27.247Z,96094.16
2023-03-06T19:49:09.923Z,96106.97
2023-03-06T19:51:37.110Z,96094.06
2023-03-06T19:54:03.865Z,96100.94
2023-03-06T19:56:31.915Z,96106.13
2023-03-06T19:58:58.505Z,96101.03
2023-03-06T20:01:27.216Z,96107.06
2023-03-06T20:03:58.565Z,96103.63
2023-03-06T20:06:31.133Z,96106.41
2023-03-06T20:08:57.679Z,96100.53
2023-03-06T20:11:26.821Z,96099.66
2023-03-06T20:13:53.486Z,96098.00
2023-03-06T20:16:20.374Z,96099.84
2023-03-06T20:18:46.900Z,96105.88
2023-03-06T20:21:14.223Z,96107.63
2023-03-06T20:23:40.986Z,96103.25
2023-03-06T20:26:10.130Z,96106.88
2023-03-06T20:28:38.685Z,96110.31
2023-03-06T20:31:18.102Z,96113.66
2023-03-06T20:33:47.761Z,96106.81
2023-03-06T20:36:16.910Z,96105.88
2023-03-06T20:38:44.377Z,96115.44
2023-03-06T20:41:19.798Z,96112.00
2023-03-06T20:43:46.411Z,96110.31
2023-03-06T20:46:14.004Z,96108.53
2023-03-06T20:48:41.595Z,96104.22
2023-03-06T20:51:17.393Z,96109.41
2023-03-06T20:53:43.967Z,96116.44
2023-03-06T20:56:16.373Z,96102.69
2023-03-06T20:58:43.372Z,96107.81
2023-03-06T21:01:18.094Z,96099.25
2023-03-06T21:03:44.727Z,96099.31
2023-03-06T21:06:11.216Z,96101.16
2023-03-06T21:08:37.721Z,96093.44
2023-03-06T21:11:04.330Z,96082.97
2023-03-06T21:13:30.824Z,96086.50
2023-03-06T21:15:57.365Z,96091.53
2023-03-06T21:18:24.453Z,96097.56
2023-03-06T21:20:51.053Z,96098.50
2023-03-06T21:23:17.562Z,96099.41
2023-03-06T21:25:48.851Z,96095.31
2023-03-06T21:28:16.017Z,96087.00
2023-03-06T21:30:43.236Z,96095.09
2023-03-06T21:33:12.705Z,96089.13
2023-03-06T21:35:41.174Z,96089.31
2023-03-06T21:38:08.678Z,96083.28
2023-03-06T21:40:35.370Z,96083.34
2023-03-06T21:43:01.911Z,96076.53
2023-03-06T21:45:30.355Z,96080.75
2023-03-06T21:47:57.944Z,96074.63
2023-03-06T21:50:25.033Z,96076.41
2023-03-06T21:52:52.184Z,96078.22
2023-03-06T21:55:19.397Z,96080.81
2023-03-06T21:57:53.031Z,96089.41
2023-03-06T22:00:20.639Z,96080.75
2023-03-06T22:02:47.220Z,96075.63
2023-03-06T22:05:13.860Z,96063.50
2023-03-06T22:07:40.615Z,96064.31
2023-03-06T22:10:09.372Z,96054.75
2023-03-06T22:12:36.525Z,96060.72
2023-03-06T22:15:03.146Z,96046.22
2023-03-06T22:17:30.998Z,96062.63
2023-03-06T22:19:57.781Z,96051.41
2023-03-06T22:22:24.907Z,96050.34
2023-03-06T22:24:51.451Z,96051.16
2023-03-06T22:27:18.050Z,96059.81
2023-03-06T22:29:45.639Z,96051.25
2023-03-06T22:32:12.350Z,96048.56
2023-03-06T22:34:39.001Z,96049.41
2023-03-06T22:37:05.549Z,96055.34
2023-03-06T22:39:32.195Z,96053.69
2023-03-06T22:41:58.756Z,96048.56
2023-03-06T22:44:25.242Z,96056.34
2023-03-06T22:46:51.872Z,96046.75
2023-03-06T22:49:19.072Z,96042.47
2023-03-06T22:51:45.577Z,96048.50
2023-03-06T22:54:12.129Z,96043.38
2023-03-06T22:56:38.716Z,96039.94
2023-03-06T22:59:05.340Z,96038.94
2023-03-06T23:01:33.933Z,96043.88
2023-03-06T23:04:03.541Z,96040.38
2023-03-06T23:06:43.180Z,96034.34
2023-03-06T23:09:20.530Z,96037.63
2023-03-06T23:11:47.802Z,96031.66
2023-03-06T23:14:15.655Z,96031.56
2023-03-06T23:16:42.209Z,96020.44
2023-03-06T23:19:08.908Z,96032.47
2023-03-06T23:21:35.645Z,96034.34
2023-03-06T23:24:02.161Z,96027.63
2023-03-06T23:26:31.221Z,96027.78
2023-03-06T23:28:58.019Z,96029.63
2023-03-06T23:31:29.702Z,96010.03
2023-03-06T23:34:02.010Z,96013.69
2023-03-06T23:36:29.668Z,96012.94
2023-03-06T23:38:56.701Z,96012.19
2023-03-06T23:41:23.733Z,96013.94
2023-03-06T23:43:52.412Z,96019.22
2023-03-06T23:46:20.718Z,96004.66
2023-03-06T23:48:47.283Z,96005.66
2023-03-06T23:51:16.628Z,96009.06
2023-03-06T23:53:44.557Z,96010.94
2023-03-06T23:56:11.359Z,96009.25
2023-03-06T23:58:38.737Z,96004.13
